Denham, Indiana
Current Conditions -  °F | °C
As of 9:15 AM on Wednesday 26 Nov 2014 (Local Time) from KOXI Reporting Station
Overcast Overcast  
Wind Chill: 16°   Ceiling: 1400
Heat Index: 26°   Visibility: 10mi
Dew Point: 20°   Wind: 9mph
Humidity: 78%   Direction: 140°SE
Pressure: 30.16"   Gusts: NA
Location:  41.0563°N, 86.6606°W
Report Text: KOXI 261515Z AUTO 14008KT 10SM OVC014 M04/M07 A3016 RMK AO1 T10361069
Loading
Personal Weather Stations






























Interactive Weather Map New forecast layout! Learn more

10-Day Weather Forecast

Advertisements
Track Severe Weather on mobile